sensor_id;sensor_type;location;lat;lon;timestamp;P1;durP1;ratioP1;P2;durP2;ratioP2
50319;SDS011;36226;53.464;9.852;2024-03-08T00:02:21;19.90;;;9.88;;
50319;SDS011;36226;53.464;9.852;2024-03-08T00:04:46;22.73;;;10.52;;
50319;SDS011;36226;53.464;9.852;2024-03-08T00:07:12;20.17;;;9.80;;
50319;SDS011;36226;53.464;9.852;2024-03-08T00:09:38;23.45;;;10.00;;
50319;SDS011;36226;53.464;9.852;2024-03-08T00:12:03;19.98;;;9.68;;
50319;SDS011;36226;53.464;9.852;2024-03-08T00:14:29;22.48;;;10.02;;
50319;SDS011;36226;53.464;9.852;2024-03-08T00:16:54;21.33;;;10.55;;
50319;SDS011;36226;53.464;9.852;2024-03-08T00:19:19;20.30;;;10.13;;
50319;SDS011;36226;53.464;9.852;2024-03-08T00:21:45;23.63;;;9.82;;
50319;SDS011;36226;53.464;9.852;2024-03-08T00:24:10;22.48;;;9.80;;
50319;SDS011;36226;53.464;9.852;2024-03-08T00:26:37;22.13;;;10.30;;
50319;SDS011;36226;53.464;9.852;2024-03-08T00:29:02;24.88;;;10.45;;
50319;SDS011;36226;53.464;9.852;2024-03-08T00:31:28;21.02;;;9.73;;
50319;SDS011;36226;53.464;9.852;2024-03-08T00:33:55;20.02;;;9.43;;
50319;SDS011;36226;53.464;9.852;2024-03-08T00:36:21;21.25;;;9.55;;
50319;SDS011;36226;53.464;9.852;2024-03-08T00:38:47;18.88;;;9.57;;
50319;SDS011;36226;53.464;9.852;2024-03-08T00:41:12;20.42;;;9.23;;
50319;SDS011;36226;53.464;9.852;2024-03-08T00:43:38;22.58;;;10.27;;
50319;SDS011;36226;53.464;9.852;2024-03-08T00:46:03;22.63;;;10.18;;
50319;SDS011;36226;53.464;9.852;2024-03-08T00:48:29;18.45;;;9.75;;
50319;SDS011;36226;53.464;9.852;2024-03-08T00:50:56;19.63;;;9.23;;
50319;SDS011;36226;53.464;9.852;2024-03-08T00:53:21;20.85;;;9.50;;
50319;SDS011;36226;53.464;9.852;2024-03-08T00:55:46;20.20;;;9.38;;
50319;SDS011;36226;53.464;9.852;2024-03-08T00:58:12;21.27;;;10.38;;
50319;SDS011;36226;53.464;9.852;2024-03-08T01:00:38;22.83;;;10.65;;
50319;SDS011;36226;53.464;9.852;2024-03-08T01:03:04;24.65;;;10.05;;
50319;SDS011;36226;53.464;9.852;2024-03-08T01:05:30;21.25;;;9.68;;
50319;SDS011;36226;53.464;9.852;2024-03-08T01:07:55;22.73;;;10.05;;
50319;SDS011;36226;53.464;9.852;2024-03-08T01:10:21;21.70;;;10.13;;
50319;SDS011;36226;53.464;9.852;2024-03-08T01:12:46;25.90;;;10.45;;
50319;SDS011;36226;53.464;9.852;2024-03-08T01:15:12;19.27;;;9.82;;
50319;SDS011;36226;53.464;9.852;2024-03-08T01:17:37;22.92;;;10.23;;
50319;SDS011;36226;53.464;9.852;2024-03-08T01:20:03;23.98;;;10.45;;
50319;SDS011;36226;53.464;9.852;2024-03-08T01:22:29;22.15;;;10.25;;
50319;SDS011;36226;53.464;9.852;2024-03-08T01:24:55;22.90;;;9.90;;
50319;SDS011;36226;53.464;9.852;2024-03-08T01:27:21;22.77;;;10.38;;
50319;SDS011;36226;53.464;9.852;2024-03-08T01:29:46;22.77;;;9.95;;
50319;SDS011;36226;53.464;9.852;2024-03-08T01:32:12;25.30;;;10.48;;
50319;SDS011;36226;53.464;9.852;2024-03-08T01:34:37;25.80;;;10.55;;
50319;SDS011;36226;53.464;9.852;2024-03-08T01:37:02;22.85;;;10.10;;
50319;SDS011;36226;53.464;9.852;2024-03-08T01:39:28;21.70;;;10.10;;
50319;SDS011;36226;53.464;9.852;2024-03-08T01:41:53;23.55;;;9.80;;
50319;SDS011;36226;53.464;9.852;2024-03-08T01:44:19;20.52;;;9.88;;
50319;SDS011;36226;53.464;9.852;2024-03-08T01:46:45;23.13;;;10.10;;
50319;SDS011;36226;53.464;9.852;2024-03-08T01:49:11;23.73;;;9.75;;
50319;SDS011;36226;53.464;9.852;2024-03-08T01:51:36;23.20;;;10.23;;
50319;SDS011;36226;53.464;9.852;2024-03-08T01:54:05;22.15;;;10.45;;
50319;SDS011;36226;53.464;9.852;2024-03-08T01:56:30;25.10;;;9.88;;
50319;SDS011;36226;53.464;9.852;2024-03-08T01:58:56;21.75;;;10.27;;
50319;SDS011;36226;53.464;9.852;2024-03-08T02:01:22;22.83;;;9.45;;
50319;SDS011;36226;53.464;9.852;2024-03-08T02:03:49;20.77;;;9.95;;
50319;SDS011;36226;53.464;9.852;2024-03-08T02:06:14;20.50;;;10.43;;
50319;SDS011;36226;53.464;9.852;2024-03-08T02:08:44;20.88;;;9.52;;
50319;SDS011;36226;53.464;9.852;2024-03-08T02:11:10;24.60;;;10.50;;
50319;SDS011;36226;53.464;9.852;2024-03-08T02:13:35;23.15;;;8.98;;
50319;SDS011;36226;53.464;9.852;2024-03-08T02:16:01;21.33;;;9.82;;
50319;SDS011;36226;53.464;9.852;2024-03-08T02:18:27;20.27;;;9.55;;
50319;SDS011;36226;53.464;9.852;2024-03-08T02:20:54;20.25;;;9.80;;
50319;SDS011;36226;53.464;9.852;2024-03-08T02:23:20;26.23;;;10.75;;
50319;SDS011;36226;53.464;9.852;2024-03-08T02:25:45;19.98;;;9.55;;
50319;SDS011;36226;53.464;9.852;2024-03-08T02:28:11;20.08;;;9.75;;
50319;SDS011;36226;53.464;9.852;2024-03-08T02:30:37;22.75;;;9.95;;
50319;SDS011;36226;53.464;9.852;2024-03-08T02:33:03;25.83;;;9.23;;
50319;SDS011;36226;53.464;9.852;2024-03-08T02:35:32;19.80;;;9.75;;
50319;SDS011;36226;53.464;9.852;2024-03-08T02:37:58;20.83;;;9.80;;
50319;SDS011;36226;53.464;9.852;2024-03-08T02:40:24;22.58;;;9.85;;
50319;SDS011;36226;53.464;9.852;2024-03-08T02:42:50;24.45;;;9.70;;
50319;SDS011;36226;53.464;9.852;2024-03-08T02:45:15;21.92;;;9.95;;
50319;SDS011;36226;53.464;9.852;2024-03-08T02:47:40;19.50;;;9.05;;
50319;SDS011;36226;53.464;9.852;2024-03-08T02:50:06;22.15;;;9.73;;
50319;SDS011;36226;53.464;9.852;2024-03-08T02:52:33;21.83;;;10.32;;
50319;SDS011;36226;53.464;9.852;2024-03-08T02:54:59;21.25;;;9.27;;
50319;SDS011;36226;53.464;9.852;2024-03-08T02:57:24;22.15;;;9.15;;
50319;SDS011;36226;53.464;9.852;2024-03-08T02:59:49;20.23;;;9.38;;
50319;SDS011;36226;53.464;9.852;2024-03-08T03:02:15;21.65;;;9.60;;
50319;SDS011;36226;53.464;9.852;2024-03-08T03:04:41;20.13;;;9.57;;
50319;SDS011;36226;53.464;9.852;2024-03-08T03:07:07;21.13;;;9.77;;
50319;SDS011;36226;53.464;9.852;2024-03-08T03:09:32;19.00;;;9.02;;
50319;SDS011;36226;53.464;9.852;2024-03-08T03:11:58;22.58;;;9.35;;
50319;SDS011;36226;53.464;9.852;2024-03-08T03:14:26;22.95;;;9.35;;
50319;SDS011;36226;53.464;9.852;2024-03-08T03:16:54;21.85;;;10.27;;
50319;SDS011;36226;53.464;9.852;2024-03-08T03:19:20;22.23;;;10.00;;
50319;SDS011;36226;53.464;9.852;2024-03-08T03:21:45;21.65;;;8.65;;
50319;SDS011;36226;53.464;9.852;2024-03-08T03:24:11;21.83;;;9.88;;
50319;SDS011;36226;53.464;9.852;2024-03-08T03:26:37;21.30;;;9.45;;
50319;SDS011;36226;53.464;9.852;2024-03-08T03:29:05;23.05;;;9.82;;
50319;SDS011;36226;53.464;9.852;2024-03-08T03:31:31;22.45;;;9.82;;
50319;SDS011;36226;53.464;9.852;2024-03-08T03:33:57;21.83;;;9.38;;
50319;SDS011;36226;53.464;9.852;2024-03-08T03:36:26;20.33;;;9.68;;
50319;SDS011;36226;53.464;9.852;2024-03-08T03:38:53;23.27;;;10.18;;
50319;SDS011;36226;53.464;9.852;2024-03-08T03:41:29;24.52;;;9.98;;
50319;SDS011;36226;53.464;9.852;2024-03-08T03:43:55;24.42;;;10.65;;
50319;SDS011;36226;53.464;9.852;2024-03-08T03:46:20;24.10;;;10.13;;
50319;SDS011;36226;53.464;9.852;2024-03-08T03:48:45;19.92;;;9.27;;
50319;SDS011;36226;53.464;9.852;2024-03-08T03:51:11;24.83;;;9.23;;
50319;SDS011;36226;53.464;9.852;2024-03-08T03:53:37;21.00;;;9.45;;
50319;SDS011;36226;53.464;9.852;2024-03-08T03:56:02;24.80;;;9.95;;
50319;SDS011;36226;53.464;9.852;2024-03-08T03:58:32;20.42;;;9.57;;
50319;SDS011;36226;53.464;9.852;2024-03-08T04:00:57;22.50;;;9.80;;
50319;SDS011;36226;53.464;9.852;2024-03-08T04:03:23;27.52;;;10.15;;
50319;SDS011;36226;53.464;9.852;2024-03-08T04:05:48;22.70;;;9.57;;
50319;SDS011;36226;53.464;9.852;2024-03-08T04:08:14;23.02;;;9.20;;
50319;SDS011;36226;53.464;9.852;2024-03-08T04:10:39;26.95;;;10.13;;
50319;SDS011;36226;53.464;9.852;2024-03-08T04:13:07;21.10;;;10.05;;
50319;SDS011;36226;53.464;9.852;2024-03-08T04:15:32;20.50;;;8.63;;
50319;SDS011;36226;53.464;9.852;2024-03-08T04:17:57;25.08;;;9.75;;
50319;SDS011;36226;53.464;9.852;2024-03-08T04:20:25;21.65;;;9.25;;
50319;SDS011;36226;53.464;9.852;2024-03-08T04:22:50;23.33;;;10.20;;
50319;SDS011;36226;53.464;9.852;2024-03-08T04:25:16;29.02;;;10.15;;
50319;SDS011;36226;53.464;9.852;2024-03-08T04:27:41;21.33;;;9.90;;
50319;SDS011;36226;53.464;9.852;2024-03-08T04:30:06;23.73;;;9.75;;
50319;SDS011;36226;53.464;9.852;2024-03-08T04:32:32;22.83;;;10.38;;
50319;SDS011;36226;53.464;9.852;2024-03-08T04:34:58;25.98;;;10.75;;
50319;SDS011;36226;53.464;9.852;2024-03-08T04:37:26;20.55;;;9.48;;
50319;SDS011;36226;53.464;9.852;2024-03-08T04:39:51;23.67;;;10.30;;
50319;SDS011;36226;53.464;9.852;2024-03-08T04:42:17;24.25;;;9.98;;
50319;SDS011;36226;53.464;9.852;2024-03-08T04:44:43;23.50;;;10.40;;
50319;SDS011;36226;53.464;9.852;2024-03-08T04:47:08;25.45;;;9.82;;
50319;SDS011;36226;53.464;9.852;2024-03-08T04:49:35;25.27;;;10.82;;
50319;SDS011;36226;53.464;9.852;2024-03-08T04:52:03;25.25;;;9.93;;
50319;SDS011;36226;53.464;9.852;2024-03-08T04:54:32;28.25;;;10.98;;
50319;SDS011;36226;53.464;9.852;2024-03-08T04:56:58;22.15;;;10.27;;
50319;SDS011;36226;53.464;9.852;2024-03-08T04:59:25;23.75;;;10.02;;
50319;SDS011;36226;53.464;9.852;2024-03-08T05:01:53;23.67;;;10.02;;
50319;SDS011;36226;53.464;9.852;2024-03-08T05:04:19;21.13;;;9.27;;
50319;SDS011;36226;53.464;9.852;2024-03-08T05:06:44;24.30;;;10.55;;
50319;SDS011;36226;53.464;9.852;2024-03-08T05:09:09;22.25;;;9.93;;
50319;SDS011;36226;53.464;9.852;2024-03-08T05:11:44;22.63;;;10.30;;
50319;SDS011;36226;53.464;9.852;2024-03-08T05:14:10;27.60;;;11.07;;
50319;SDS011;36226;53.464;9.852;2024-03-08T05:16:36;23.02;;;10.30;;
50319;SDS011;36226;53.464;9.852;2024-03-08T05:19:02;26.10;;;10.52;;
50319;SDS011;36226;53.464;9.852;2024-03-08T05:21:27;25.85;;;10.82;;
50319;SDS011;36226;53.464;9.852;2024-03-08T05:23:53;27.35;;;10.27;;
50319;SDS011;36226;53.464;9.852;2024-03-08T05:26:19;21.65;;;10.43;;
50319;SDS011;36226;53.464;9.852;2024-03-08T05:28:44;23.48;;;9.65;;
50319;SDS011;36226;53.464;9.852;2024-03-08T05:31:10;22.95;;;9.82;;
50319;SDS011;36226;53.464;9.852;2024-03-08T05:33:35;23.63;;;10.15;;
50319;SDS011;36226;53.464;9.852;2024-03-08T05:36:00;25.27;;;9.50;;
50319;SDS011;36226;53.464;9.852;2024-03-08T05:38:27;25.75;;;10.48;;
50319;SDS011;36226;53.464;9.852;2024-03-08T05:40:53;27.67;;;10.90;;
50319;SDS011;36226;53.464;9.852;2024-03-08T05:43:19;26.00;;;10.82;;
50319;SDS011;36226;53.464;9.852;2024-03-08T05:45:44;25.75;;;10.27;;
50319;SDS011;36226;53.464;9.852;2024-03-08T05:48:10;27.60;;;11.25;;
50319;SDS011;36226;53.464;9.852;2024-03-08T05:50:37;23.67;;;10.13;;
50319;SDS011;36226;53.464;9.852;2024-03-08T05:53:03;25.20;;;10.60;;
50319;SDS011;36226;53.464;9.852;2024-03-08T05:55:31;26.38;;;11.13;;
50319;SDS011;36226;53.464;9.852;2024-03-08T05:58:03;26.35;;;10.52;;
50319;SDS011;36226;53.464;9.852;2024-03-08T06:00:28;26.65;;;11.55;;
50319;SDS011;36226;53.464;9.852;2024-03-08T06:02:56;25.10;;;10.30;;
50319;SDS011;36226;53.464;9.852;2024-03-08T06:05:22;27.58;;;11.48;;
50319;SDS011;36226;53.464;9.852;2024-03-08T06:07:49;26.33;;;11.00;;
50319;SDS011;36226;53.464;9.852;2024-03-08T06:10:18;28.40;;;10.90;;
50319;SDS011;36226;53.464;9.852;2024-03-08T06:12:43;23.65;;;11.15;;
50319;SDS011;36226;53.464;9.852;2024-03-08T06:15:10;29.10;;;10.95;;
50319;SDS011;36226;53.464;9.852;2024-03-08T06:17:39;27.48;;;10.52;;
50319;SDS011;36226;53.464;9.852;2024-03-08T06:20:05;28.67;;;12.43;;
50319;SDS011;36226;53.464;9.852;2024-03-08T06:22:36;26.45;;;11.50;;
50319;SDS011;36226;53.464;9.852;2024-03-08T06:25:08;27.25;;;12.18;;
50319;SDS011;36226;53.464;9.852;2024-03-08T06:27:33;30.55;;;12.52;;
50319;SDS011;36226;53.464;9.852;2024-03-08T06:29:59;32.50;;;12.70;;
50319;SDS011;36226;53.464;9.852;2024-03-08T06:32:25;27.25;;;11.50;;
50319;SDS011;36226;53.464;9.852;2024-03-08T06:34:50;26.88;;;12.30;;
50319;SDS011;36226;53.464;9.852;2024-03-08T06:37:16;29.98;;;12.10;;
50319;SDS011;36226;53.464;9.852;2024-03-08T06:39:47;30.67;;;13.13;;
50319;SDS011;36226;53.464;9.852;2024-03-08T06:42:16;34.33;;;14.65;;
50319;SDS011;36226;53.464;9.852;2024-03-08T06:44:41;35.55;;;15.32;;
50319;SDS011;36226;53.464;9.852;2024-03-08T06:47:14;32.70;;;13.65;;
50319;SDS011;36226;53.464;9.852;2024-03-08T06:49:40;30.85;;;13.00;;
50319;SDS011;36226;53.464;9.852;2024-03-08T06:52:06;35.00;;;13.68;;
50319;SDS011;36226;53.464;9.852;2024-03-08T06:54:33;30.23;;;12.68;;
50319;SDS011;36226;53.464;9.852;2024-03-08T06:57:01;28.13;;;13.02;;
50319;SDS011;36226;53.464;9.852;2024-03-08T06:59:28;32.47;;;12.30;;
50319;SDS011;36226;53.464;9.852;2024-03-08T07:01:54;31.85;;;12.80;;
50319;SDS011;36226;53.464;9.852;2024-03-08T07:04:19;30.30;;;12.02;;
50319;SDS011;36226;53.464;9.852;2024-03-08T07:06:46;29.23;;;11.68;;
50319;SDS011;36226;53.464;9.852;2024-03-08T07:09:15;26.73;;;12.32;;
50319;SDS011;36226;53.464;9.852;2024-03-08T07:11:42;30.88;;;12.60;;
50319;SDS011;36226;53.464;9.852;2024-03-08T07:14:07;30.25;;;12.20;;
50319;SDS011;36226;53.464;9.852;2024-03-08T07:16:33;27.92;;;11.95;;
50319;SDS011;36226;53.464;9.852;2024-03-08T07:19:00;28.48;;;11.70;;
50319;SDS011;36226;53.464;9.852;2024-03-08T07:21:30;29.65;;;11.35;;
50319;SDS011;36226;53.464;9.852;2024-03-08T07:23:55;30.15;;;12.48;;
50319;SDS011;36226;53.464;9.852;2024-03-08T07:26:26;31.33;;;13.43;;
50319;SDS011;36226;53.464;9.852;2024-03-08T07:28:52;32.97;;;12.40;;
50319;SDS011;36226;53.464;9.852;2024-03-08T07:31:20;31.15;;;13.10;;
50319;SDS011;36226;53.464;9.852;2024-03-08T07:33:51;32.95;;;12.77;;
50319;SDS011;36226;53.464;9.852;2024-03-08T07:36:18;28.08;;;12.68;;
50319;SDS011;36226;53.464;9.852;2024-03-08T07:38:44;29.50;;;13.27;;
50319;SDS011;36226;53.464;9.852;2024-03-08T07:41:12;36.78;;;14.07;;
50319;SDS011;36226;53.464;9.852;2024-03-08T07:43:37;36.67;;;13.80;;
50319;SDS011;36226;53.464;9.852;2024-03-08T07:46:03;35.92;;;13.73;;
50319;SDS011;36226;53.464;9.852;2024-03-08T07:48:28;35.65;;;14.18;;
50319;SDS011;36226;53.464;9.852;2024-03-08T07:50:55;38.80;;;14.45;;
50319;SDS011;36226;53.464;9.852;2024-03-08T07:53:21;33.47;;;13.63;;
50319;SDS011;36226;53.464;9.852;2024-03-08T07:55:46;40.45;;;15.70;;
50319;SDS011;36226;53.464;9.852;2024-03-08T07:58:12;38.05;;;14.18;;
50319;SDS011;36226;53.464;9.852;2024-03-08T08:00:38;36.83;;;15.00;;
50319;SDS011;36226;53.464;9.852;2024-03-08T08:03:04;34.97;;;14.98;;
50319;SDS011;36226;53.464;9.852;2024-03-08T08:05:30;40.40;;;15.13;;
50319;SDS011;36226;53.464;9.852;2024-03-08T08:08:00;31.00;;;13.98;;
50319;SDS011;36226;53.464;9.852;2024-03-08T08:10:28;36.45;;;15.73;;
50319;SDS011;36226;53.464;9.852;2024-03-08T08:12:53;37.72;;;14.68;;
50319;SDS011;36226;53.464;9.852;2024-03-08T08:15:19;34.55;;;15.52;;
50319;SDS011;36226;53.464;9.852;2024-03-08T08:17:45;32.63;;;14.55;;
50319;SDS011;36226;53.464;9.852;2024-03-08T08:20:11;33.95;;;15.18;;
50319;SDS011;36226;53.464;9.852;2024-03-08T08:22:38;34.53;;;14.73;;
50319;SDS011;36226;53.464;9.852;2024-03-08T08:25:08;40.88;;;15.60;;
50319;SDS011;36226;53.464;9.852;2024-03-08T08:27:33;38.55;;;15.07;;
50319;SDS011;36226;53.464;9.852;2024-03-08T08:29:59;36.38;;;14.90;;
50319;SDS011;36226;53.464;9.852;2024-03-08T08:32:25;31.65;;;14.18;;
50319;SDS011;36226;53.464;9.852;2024-03-08T08:34:51;37.80;;;14.98;;
50319;SDS011;36226;53.464;9.852;2024-03-08T08:37:16;32.22;;;14.70;;
50319;SDS011;36226;53.464;9.852;2024-03-08T08:39:42;32.00;;;14.45;;
50319;SDS011;36226;53.464;9.852;2024-03-08T08:42:07;30.95;;;14.70;;
50319;SDS011;36226;53.464;9.852;2024-03-08T08:44:34;28.35;;;13.45;;
50319;SDS011;36226;53.464;9.852;2024-03-08T08:47:00;30.80;;;13.68;;
50319;SDS011;36226;53.464;9.852;2024-03-08T08:49:26;34.90;;;14.93;;
50319;SDS011;36226;53.464;9.852;2024-03-08T08:51:51;30.80;;;14.55;;
50319;SDS011;36226;53.464;9.852;2024-03-08T08:54:17;29.58;;;14.30;;
50319;SDS011;36226;53.464;9.852;2024-03-08T08:56:43;31.27;;;13.80;;
50319;SDS011;36226;53.464;9.852;2024-03-08T08:59:09;31.75;;;14.88;;
50319;SDS011;36226;53.464;9.852;2024-03-08T09:01:35;30.58;;;14.20;;
50319;SDS011;36226;53.464;9.852;2024-03-08T09:04:00;32.45;;;13.88;;
50319;SDS011;36226;53.464;9.852;2024-03-08T09:06:25;29.88;;;14.20;;
50319;SDS011;36226;53.464;9.852;2024-03-08T09:08:51;31.50;;;13.88;;
50319;SDS011;36226;53.464;9.852;2024-03-08T09:11:16;31.45;;;14.40;;
50319;SDS011;36226;53.464;9.852;2024-03-08T09:13:44;27.00;;;13.02;;
50319;SDS011;36226;53.464;9.852;2024-03-08T09:16:11;29.80;;;13.68;;
50319;SDS011;36226;53.464;9.852;2024-03-08T09:18:36;30.13;;;14.77;;
50319;SDS011;36226;53.464;9.852;2024-03-08T09:21:02;35.90;;;15.45;;
50319;SDS011;36226;53.464;9.852;2024-03-08T09:23:28;31.67;;;14.57;;
50319;SDS011;36226;53.464;9.852;2024-03-08T09:25:58;28.20;;;13.98;;
50319;SDS011;36226;53.464;9.852;2024-03-08T09:28:23;34.35;;;14.75;;
50319;SDS011;36226;53.464;9.852;2024-03-08T09:30:50;31.42;;;14.68;;
50319;SDS011;36226;53.464;9.852;2024-03-08T09:33:15;31.50;;;15.05;;
50319;SDS011;36226;53.464;9.852;2024-03-08T09:35:44;29.15;;;14.55;;
50319;SDS011;36226;53.464;9.852;2024-03-08T09:38:13;32.60;;;14.68;;
50319;SDS011;36226;53.464;9.852;2024-03-08T09:40:42;31.75;;;14.50;;
50319;SDS011;36226;53.464;9.852;2024-03-08T09:43:09;26.88;;;13.98;;
50319;SDS011;36226;53.464;9.852;2024-03-08T09:45:36;29.48;;;14.60;;
50319;SDS011;36226;53.464;9.852;2024-03-08T09:48:05;30.77;;;14.27;;
50319;SDS011;36226;53.464;9.852;2024-03-08T09:50:34;26.42;;;13.55;;
50319;SDS011;36226;53.464;9.852;2024-03-08T09:52:59;23.35;;;12.18;;
50319;SDS011;36226;53.464;9.852;2024-03-08T09:55:25;31.80;;;13.93;;
50319;SDS011;36226;53.464;9.852;2024-03-08T09:57:53;31.27;;;15.10;;
50319;SDS011;36226;53.464;9.852;2024-03-08T10:00:38;28.25;;;14.32;;
50319;SDS011;36226;53.464;9.852;2024-03-08T10:03:03;31.25;;;15.25;;
50319;SDS011;36226;53.464;9.852;2024-03-08T10:05:30;30.08;;;14.93;;
50319;SDS011;36226;53.464;9.852;2024-03-08T10:07:58;28.48;;;15.40;;
50319;SDS011;36226;53.464;9.852;2024-03-08T10:10:23;29.70;;;13.27;;
50319;SDS011;36226;53.464;9.852;2024-03-08T10:12:48;27.35;;;13.85;;
50319;SDS011;36226;53.464;9.852;2024-03-08T10:15:15;34.28;;;13.82;;
50319;SDS011;36226;53.464;9.852;2024-03-08T10:17:41;28.55;;;14.02;;
50319;SDS011;36226;53.464;9.852;2024-03-08T10:20:17;30.85;;;14.68;;
50319;SDS011;36226;53.464;9.852;2024-03-08T10:22:43;30.85;;;14.00;;
50319;SDS011;36226;53.464;9.852;2024-03-08T10:25:10;29.80;;;14.20;;
50319;SDS011;36226;53.464;9.852;2024-03-08T10:27:37;29.63;;;15.30;;
50319;SDS011;36226;53.464;9.852;2024-03-08T10:30:04;27.73;;;14.35;;
50319;SDS011;36226;53.464;9.852;2024-03-08T10:32:30;30.10;;;14.65;;
50319;SDS011;36226;53.464;9.852;2024-03-08T10:34:55;31.08;;;14.27;;
50319;SDS011;36226;53.464;9.852;2024-03-08T10:37:21;31.92;;;13.93;;
50319;SDS011;36226;53.464;9.852;2024-03-08T10:39:51;30.45;;;13.75;;
50319;SDS011;36226;53.464;9.852;2024-03-08T10:42:26;27.70;;;12.35;;
50319;SDS011;36226;53.464;9.852;2024-03-08T10:44:58;27.52;;;14.02;;
50319;SDS011;36226;53.464;9.852;2024-03-08T10:47:29;26.50;;;13.45;;
50319;SDS011;36226;53.464;9.852;2024-03-08T10:52:51;27.55;;;14.18;;
50319;SDS011;36226;53.464;9.852;2024-03-08T10:55:20;29.70;;;14.93;;
50319;SDS011;36226;53.464;9.852;2024-03-08T10:57:46;30.65;;;13.63;;
50319;SDS011;36226;53.464;9.852;2024-03-08T11:00:14;25.65;;;13.73;;
50319;SDS011;36226;53.464;9.852;2024-03-08T11:02:44;24.92;;;12.95;;
50319;SDS011;36226;53.464;9.852;2024-03-08T11:05:09;24.15;;;11.02;;
50319;SDS011;36226;53.464;9.852;2024-03-08T11:07:40;23.83;;;11.93;;
50319;SDS011;36226;53.464;9.852;2024-03-08T11:10:18;25.30;;;12.43;;
50319;SDS011;36226;53.464;9.852;2024-03-08T11:12:44;23.00;;;11.60;;
50319;SDS011;36226;53.464;9.852;2024-03-08T11:15:11;22.77;;;11.70;;
50319;SDS011;36226;53.464;9.852;2024-03-08T11:20:08;22.02;;;11.15;;
50319;SDS011;36226;53.464;9.852;2024-03-08T11:22:40;21.88;;;11.75;;
50319;SDS011;36226;53.464;9.852;2024-03-08T11:25:08;22.35;;;10.60;;
50319;SDS011;36226;53.464;9.852;2024-03-08T11:27:37;22.30;;;11.85;;
50319;SDS011;36226;53.464;9.852;2024-03-08T11:30:06;20.00;;;10.77;;
50319;SDS011;36226;53.464;9.852;2024-03-08T11:32:36;23.17;;;11.85;;
50319;SDS011;36226;53.464;9.852;2024-03-08T11:35:05;19.88;;;11.00;;
50319;SDS011;36226;53.464;9.852;2024-03-08T11:37:33;22.48;;;11.05;;
50319;SDS011;36226;53.464;9.852;2024-03-08T11:39:59;23.92;;;12.27;;
50319;SDS011;36226;53.464;9.852;2024-03-08T11:42:26;22.65;;;11.38;;
50319;SDS011;36226;53.464;9.852;2024-03-08T11:44:52;20.73;;;11.00;;
50319;SDS011;36226;53.464;9.852;2024-03-08T11:47:18;24.55;;;12.32;;
50319;SDS011;36226;53.464;9.852;2024-03-08T11:49:44;24.67;;;12.57;;
50319;SDS011;36226;53.464;9.852;2024-03-08T11:52:12;21.33;;;11.35;;
50319;SDS011;36226;53.464;9.852;2024-03-08T11:54:42;20.77;;;11.00;;
50319;SDS011;36226;53.464;9.852;2024-03-08T11:57:15;21.13;;;11.48;;
50319;SDS011;36226;53.464;9.852;2024-03-08T12:02:19;24.80;;;11.90;;
50319;SDS011;36226;53.464;9.852;2024-03-08T12:04:44;26.58;;;12.48;;
50319;SDS011;36226;53.464;9.852;2024-03-08T12:07:11;25.98;;;12.80;;
50319;SDS011;36226;53.464;9.852;2024-03-08T12:09:39;25.30;;;12.25;;
50319;SDS011;36226;53.464;9.852;2024-03-08T12:12:06;23.02;;;11.70;;
50319;SDS011;36226;53.464;9.852;2024-03-08T12:14:32;21.15;;;11.50;;
50319;SDS011;36226;53.464;9.852;2024-03-08T12:16:58;23.25;;;12.00;;
50319;SDS011;36226;53.464;9.852;2024-03-08T12:19:26;22.60;;;11.88;;
50319;SDS011;36226;53.464;9.852;2024-03-08T12:21:53;24.10;;;11.63;;
50319;SDS011;36226;53.464;9.852;2024-03-08T12:24:19;23.85;;;12.23;;
50319;SDS011;36226;53.464;9.852;2024-03-08T12:26:46;20.40;;;11.48;;
50319;SDS011;36226;53.464;9.852;2024-03-08T12:31:52;23.85;;;12.35;;
50319;SDS011;36226;53.464;9.852;2024-03-08T12:34:23;20.42;;;11.45;;
50319;SDS011;36226;53.464;9.852;2024-03-08T12:36:49;21.85;;;11.38;;
50319;SDS011;36226;53.464;9.852;2024-03-08T12:39:18;23.23;;;11.65;;
50319;SDS011;36226;53.464;9.852;2024-03-08T12:41:53;22.08;;;11.13;;
50319;SDS011;36226;53.464;9.852;2024-03-08T12:44:19;21.98;;;11.13;;
50319;SDS011;36226;53.464;9.852;2024-03-08T12:46:46;20.02;;;10.93;;
50319;SDS011;36226;53.464;9.852;2024-03-08T12:49:13;18.73;;;10.50;;
50319;SDS011;36226;53.464;9.852;2024-03-08T12:51:42;19.75;;;10.93;;
50319;SDS011;36226;53.464;9.852;2024-03-08T12:54:08;21.55;;;10.35;;
50319;SDS011;36226;53.464;9.852;2024-03-08T12:56:34;19.58;;;9.65;;
50319;SDS011;36226;53.464;9.852;2024-03-08T12:59:00;19.38;;;10.18;;
50319;SDS011;36226;53.464;9.852;2024-03-08T13:01:26;19.42;;;9.90;;
50319;SDS011;36226;53.464;9.852;2024-03-08T13:03:54;22.45;;;10.23;;
50319;SDS011;36226;53.464;9.852;2024-03-08T13:06:23;19.65;;;9.93;;
50319;SDS011;36226;53.464;9.852;2024-03-08T13:08:52;20.10;;;10.30;;
50319;SDS011;36226;53.464;9.852;2024-03-08T13:11:18;18.13;;;9.73;;
50319;SDS011;36226;53.464;9.852;2024-03-08T13:13:44;19.98;;;10.90;;
50319;SDS011;36226;53.464;9.852;2024-03-08T13:16:10;18.55;;;10.45;;
50319;SDS011;36226;53.464;9.852;2024-03-08T13:18:37;17.85;;;10.20;;
50319;SDS011;36226;53.464;9.852;2024-03-08T13:21:03;14.93;;;8.57;;
50319;SDS011;36226;53.464;9.852;2024-03-08T13:23:36;17.70;;;9.60;;
50319;SDS011;36226;53.464;9.852;2024-03-08T13:26:05;15.75;;;9.02;;
50319;SDS011;36226;53.464;9.852;2024-03-08T13:28:33;17.58;;;8.85;;
50319;SDS011;36226;53.464;9.852;2024-03-08T13:31:08;14.98;;;8.50;;
50319;SDS011;36226;53.464;9.852;2024-03-08T13:33:39;14.77;;;8.20;;
50319;SDS011;36226;53.464;9.852;2024-03-08T13:36:06;16.60;;;8.20;;
50319;SDS011;36226;53.464;9.852;2024-03-08T13:38:39;14.82;;;8.05;;
50319;SDS011;36226;53.464;9.852;2024-03-08T13:41:07;17.63;;;8.57;;
50319;SDS011;36226;53.464;9.852;2024-03-08T13:43:33;16.92;;;8.52;;
50319;SDS011;36226;53.464;9.852;2024-03-08T13:45:59;16.98;;;9.07;;
50319;SDS011;36226;53.464;9.852;2024-03-08T13:48:24;14.25;;;7.82;;
50319;SDS011;36226;53.464;9.852;2024-03-08T13:50:50;13.63;;;8.43;;
50319;SDS011;36226;53.464;9.852;2024-03-08T13:53:16;15.82;;;8.10;;
50319;SDS011;36226;53.464;9.852;2024-03-08T13:55:42;14.95;;;8.13;;
50319;SDS011;36226;53.464;9.852;2024-03-08T13:58:07;16.50;;;8.65;;
50319;SDS011;36226;53.464;9.852;2024-03-08T14:00:39;17.25;;;8.27;;
50319;SDS011;36226;53.464;9.852;2024-03-08T14:03:06;12.80;;;7.65;;
50319;SDS011;36226;53.464;9.852;2024-03-08T14:05:32;16.42;;;8.35;;
50319;SDS011;36226;53.464;9.852;2024-03-08T14:08:09;19.00;;;8.63;;
50319;SDS011;36226;53.464;9.852;2024-03-08T14:10:44;15.00;;;8.77;;
50319;SDS011;36226;53.464;9.852;2024-03-08T14:13:12;15.30;;;8.70;;
50319;SDS011;36226;53.464;9.852;2024-03-08T14:15:37;17.77;;;8.90;;
50319;SDS011;36226;53.464;9.852;2024-03-08T14:18:07;16.38;;;8.55;;
50319;SDS011;36226;53.464;9.852;2024-03-08T14:20:33;20.02;;;9.45;;
50319;SDS011;36226;53.464;9.852;2024-03-08T14:22:58;17.08;;;9.18;;
50319;SDS011;36226;53.464;9.852;2024-03-08T14:25:24;14.05;;;8.07;;
50319;SDS011;36226;53.464;9.852;2024-03-08T14:27:50;19.45;;;8.65;;
50319;SDS011;36226;53.464;9.852;2024-03-08T14:30:19;14.25;;;8.43;;
50319;SDS011;36226;53.464;9.852;2024-03-08T14:33:06;17.13;;;8.77;;
50319;SDS011;36226;53.464;9.852;2024-03-08T14:35:34;16.50;;;8.55;;